sensor_id;sensor_type;location;lat;lon;timestamp;P1;durP1;ratioP1;P2;durP2;ratioP2
81378;SDS011;70830;42.290;-71.354;2023-11-19T00:00:20;1.75;;;1.50;;
81378;SDS011;70830;42.290;-71.354;2023-11-19T00:02:46;1.70;;;1.42;;
81378;SDS011;70830;42.290;-71.354;2023-11-19T00:05:12;2.00;;;1.40;;
81378;SDS011;70830;42.290;-71.354;2023-11-19T00:07:39;3.70;;;1.50;;
81378;SDS011;70830;42.290;-71.354;2023-11-19T00:10:12;1.35;;;1.00;;
81378;SDS011;70830;42.290;-71.354;2023-11-19T00:12:40;1.42;;;1.20;;
81378;SDS011;70830;42.290;-71.354;2023-11-19T00:15:07;1.42;;;1.20;;
81378;SDS011;70830;42.290;-71.354;2023-11-19T00:17:37;1.23;;;1.13;;
81378;SDS011;70830;42.290;-71.354;2023-11-19T00:20:06;1.67;;;1.30;;
81378;SDS011;70830;42.290;-71.354;2023-11-19T00:22:33;2.38;;;0.60;;
81378;SDS011;70830;42.290;-71.354;2023-11-19T00:24:59;5.53;;;1.85;;
81378;SDS011;70830;42.290;-71.354;2023-11-19T00:27:25;1.85;;;1.38;;
81378;SDS011;70830;42.290;-71.354;2023-11-19T00:29:51;1.52;;;0.65;;
81378;SDS011;70830;42.290;-71.354;2023-11-19T00:32:17;1.63;;;1.52;;
81378;SDS011;70830;42.290;-71.354;2023-11-19T00:34:46;1.40;;;1.30;;
81378;SDS011;70830;42.290;-71.354;2023-11-19T00:37:13;1.95;;;0.98;;
81378;SDS011;70830;42.290;-71.354;2023-11-19T00:39:40;0.82;;;0.70;;
81378;SDS011;70830;42.290;-71.354;2023-11-19T00:42:07;1.50;;;1.20;;
81378;SDS011;70830;42.290;-71.354;2023-11-19T00:44:33;1.67;;;1.00;;
81378;SDS011;70830;42.290;-71.354;2023-11-19T00:46:58;2.20;;;1.02;;
81378;SDS011;70830;42.290;-71.354;2023-11-19T00:49:27;3.42;;;1.42;;
81378;SDS011;70830;42.290;-71.354;2023-11-19T00:51:53;1.52;;;1.00;;
81378;SDS011;70830;42.290;-71.354;2023-11-19T00:54:19;1.70;;;1.20;;
81378;SDS011;70830;42.290;-71.354;2023-11-19T00:56:45;1.90;;;1.25;;
81378;SDS011;70830;42.290;-71.354;2023-11-19T00:59:11;1.80;;;1.50;;
81378;SDS011;70830;42.290;-71.354;2023-11-19T01:01:37;1.70;;;1.30;;
81378;SDS011;70830;42.290;-71.354;2023-11-19T01:04:03;1.67;;;1.55;;
81378;SDS011;70830;42.290;-71.354;2023-11-19T01:06:29;2.10;;;1.60;;
81378;SDS011;70830;42.290;-71.354;2023-11-19T01:08:56;1.50;;;1.40;;
81378;SDS011;70830;42.290;-71.354;2023-11-19T01:11:23;2.65;;;1.92;;
81378;SDS011;70830;42.290;-71.354;2023-11-19T01:13:49;2.90;;;1.80;;
81378;SDS011;70830;42.290;-71.354;2023-11-19T01:16:15;4.22;;;1.83;;
81378;SDS011;70830;42.290;-71.354;2023-11-19T01:18:41;2.95;;;1.75;;
81378;SDS011;70830;42.290;-71.354;2023-11-19T01:21:07;1.67;;;1.50;;
81378;SDS011;70830;42.290;-71.354;2023-11-19T01:23:34;1.75;;;1.65;;
81378;SDS011;70830;42.290;-71.354;2023-11-19T01:26:00;1.48;;;0.80;;
81378;SDS011;70830;42.290;-71.354;2023-11-19T01:28:26;2.25;;;0.63;;
81378;SDS011;70830;42.290;-71.354;2023-11-19T01:30:52;1.58;;;0.85;;
81378;SDS011;70830;42.290;-71.354;2023-11-19T01:33:18;1.90;;;0.90;;
81378;SDS011;70830;42.290;-71.354;2023-11-19T01:35:44;1.08;;;0.70;;
81378;SDS011;70830;42.290;-71.354;2023-11-19T01:38:10;1.33;;;0.60;;
81378;SDS011;70830;42.290;-71.354;2023-11-19T01:40:36;1.30;;;0.77;;
81378;SDS011;70830;42.290;-71.354;2023-11-19T01:43:02;1.33;;;0.88;;
81378;SDS011;70830;42.290;-71.354;2023-11-19T01:45:29;1.27;;;0.88;;
81378;SDS011;70830;42.290;-71.354;2023-11-19T01:47:57;1.65;;;0.95;;
81378;SDS011;70830;42.290;-71.354;2023-11-19T01:50:25;2.00;;;0.80;;
81378;SDS011;70830;42.290;-71.354;2023-11-19T01:52:54;1.90;;;0.75;;
81378;SDS011;70830;42.290;-71.354;2023-11-19T01:55:23;1.30;;;0.90;;
81378;SDS011;70830;42.290;-71.354;2023-11-19T01:57:51;1.70;;;0.88;;
81378;SDS011;70830;42.290;-71.354;2023-11-19T02:00:20;0.93;;;0.50;;
81378;SDS011;70830;42.290;-71.354;2023-11-19T02:02:46;0.95;;;0.60;;
81378;SDS011;70830;42.290;-71.354;2023-11-19T02:05:13;1.50;;;1.20;;
81378;SDS011;70830;42.290;-71.354;2023-11-19T02:07:39;0.93;;;0.63;;
81378;SDS011;70830;42.290;-71.354;2023-11-19T02:10:06;1.17;;;0.68;;
81378;SDS011;70830;42.290;-71.354;2023-11-19T02:12:38;1.60;;;0.63;;
81378;SDS011;70830;42.290;-71.354;2023-11-19T02:15:08;1.27;;;0.73;;
81378;SDS011;70830;42.290;-71.354;2023-11-19T02:17:35;1.48;;;0.93;;
81378;SDS011;70830;42.290;-71.354;2023-11-19T02:20:03;2.60;;;0.93;;
81378;SDS011;70830;42.290;-71.354;2023-11-19T02:22:34;0.80;;;0.50;;
81378;SDS011;70830;42.290;-71.354;2023-11-19T02:25:00;1.10;;;0.65;;
81378;SDS011;70830;42.290;-71.354;2023-11-19T02:27:55;0.80;;;0.70;;
81378;SDS011;70830;42.290;-71.354;2023-11-19T02:30:25;1.73;;;0.60;;
81378;SDS011;70830;42.290;-71.354;2023-11-19T02:32:57;2.67;;;1.13;;
81378;SDS011;70830;42.290;-71.354;2023-11-19T02:35:26;1.35;;;0.80;;
81378;SDS011;70830;42.290;-71.354;2023-11-19T02:37:54;1.90;;;0.82;;
81378;SDS011;70830;42.290;-71.354;2023-11-19T02:40:20;1.83;;;0.98;;
81378;SDS011;70830;42.290;-71.354;2023-11-19T02:42:48;2.97;;;1.00;;
81378;SDS011;70830;42.290;-71.354;2023-11-19T02:45:13;5.30;;;3.00;;
81378;SDS011;70830;42.290;-71.354;2023-11-19T02:47:40;4.00;;;1.52;;
81378;SDS011;70830;42.290;-71.354;2023-11-19T02:50:08;2.63;;;2.38;;
81378;SDS011;70830;42.290;-71.354;2023-11-19T02:52:41;1.00;;;0.90;;
81378;SDS011;70830;42.290;-71.354;2023-11-19T02:55:11;2.75;;;0.93;;
81378;SDS011;70830;42.290;-71.354;2023-11-19T02:57:41;2.72;;;1.10;;
81378;SDS011;70830;42.290;-71.354;2023-11-19T03:00:18;3.00;;;1.30;;
81378;SDS011;70830;42.290;-71.354;2023-11-19T03:02:49;3.80;;;1.60;;
81378;SDS011;70830;42.290;-71.354;2023-11-19T03:05:24;2.17;;;1.13;;
81378;SDS011;70830;42.290;-71.354;2023-11-19T03:07:51;3.35;;;2.70;;
81378;SDS011;70830;42.290;-71.354;2023-11-19T03:10:18;2.60;;;2.40;;
81378;SDS011;70830;42.290;-71.354;2023-11-19T03:12:44;5.75;;;2.47;;
81378;SDS011;70830;42.290;-71.354;2023-11-19T03:15:13;3.78;;;2.95;;
81378;SDS011;70830;42.290;-71.354;2023-11-19T03:17:39;3.75;;;2.60;;
81378;SDS011;70830;42.290;-71.354;2023-11-19T03:20:07;3.55;;;2.50;;
81378;SDS011;70830;42.290;-71.354;2023-11-19T03:22:42;3.80;;;2.90;;
81378;SDS011;70830;42.290;-71.354;2023-11-19T03:25:09;5.45;;;3.00;;
81378;SDS011;70830;42.290;-71.354;2023-11-19T03:27:38;3.47;;;2.50;;
81378;SDS011;70830;42.290;-71.354;2023-11-19T03:30:07;3.85;;;2.60;;
81378;SDS011;70830;42.290;-71.354;2023-11-19T03:32:36;4.28;;;2.30;;
81378;SDS011;70830;42.290;-71.354;2023-11-19T03:35:04;7.22;;;2.70;;
81378;SDS011;70830;42.290;-71.354;2023-11-19T03:37:34;6.00;;;3.15;;
81378;SDS011;70830;42.290;-71.354;2023-11-19T03:40:01;6.93;;;2.90;;
81378;SDS011;70830;42.290;-71.354;2023-11-19T03:42:27;4.28;;;2.70;;
81378;SDS011;70830;42.290;-71.354;2023-11-19T03:44:54;3.50;;;2.25;;
81378;SDS011;70830;42.290;-71.354;2023-11-19T03:47:21;7.75;;;3.30;;
81378;SDS011;70830;42.290;-71.354;2023-11-19T03:49:48;6.03;;;2.13;;
81378;SDS011;70830;42.290;-71.354;2023-11-19T03:52:14;2.60;;;1.55;;
81378;SDS011;70830;42.290;-71.354;2023-11-19T03:54:40;4.80;;;2.28;;
81378;SDS011;70830;42.290;-71.354;2023-11-19T03:57:05;3.03;;;1.80;;
81378;SDS011;70830;42.290;-71.354;2023-11-19T03:59:31;4.15;;;1.73;;
81378;SDS011;70830;42.290;-71.354;2023-11-19T04:01:58;2.65;;;1.40;;
81378;SDS011;70830;42.290;-71.354;2023-11-19T04:04:26;3.40;;;2.17;;
81378;SDS011;70830;42.290;-71.354;2023-11-19T04:06:55;3.72;;;1.95;;
81378;SDS011;70830;42.290;-71.354;2023-11-19T04:09:21;3.45;;;1.60;;
81378;SDS011;70830;42.290;-71.354;2023-11-19T04:11:47;3.38;;;1.70;;
81378;SDS011;70830;42.290;-71.354;2023-11-19T04:14:13;3.25;;;1.88;;
81378;SDS011;70830;42.290;-71.354;2023-11-19T04:16:40;4.68;;;1.90;;
81378;SDS011;70830;42.290;-71.354;2023-11-19T04:19:06;3.03;;;2.03;;
81378;SDS011;70830;42.290;-71.354;2023-11-19T04:21:32;3.65;;;1.90;;
81378;SDS011;70830;42.290;-71.354;2023-11-19T04:23:58;4.97;;;1.92;;
81378;SDS011;70830;42.290;-71.354;2023-11-19T04:26:24;3.40;;;1.80;;
81378;SDS011;70830;42.290;-71.354;2023-11-19T04:28:50;2.58;;;1.70;;
81378;SDS011;70830;42.290;-71.354;2023-11-19T04:31:16;2.75;;;1.83;;
81378;SDS011;70830;42.290;-71.354;2023-11-19T04:33:42;2.65;;;1.60;;
81378;SDS011;70830;42.290;-71.354;2023-11-19T04:36:09;2.45;;;1.38;;
81378;SDS011;70830;42.290;-71.354;2023-11-19T04:38:35;5.03;;;1.40;;
81378;SDS011;70830;42.290;-71.354;2023-11-19T04:41:04;3.72;;;1.77;;
81378;SDS011;70830;42.290;-71.354;2023-11-19T04:43:31;5.22;;;2.00;;
81378;SDS011;70830;42.290;-71.354;2023-11-19T04:45:57;2.40;;;1.52;;
81378;SDS011;70830;42.290;-71.354;2023-11-19T04:48:23;2.85;;;1.80;;
81378;SDS011;70830;42.290;-71.354;2023-11-19T04:50:49;3.10;;;1.52;;
81378;SDS011;70830;42.290;-71.354;2023-11-19T04:53:18;5.32;;;1.75;;
81378;SDS011;70830;42.290;-71.354;2023-11-19T04:55:44;2.58;;;1.88;;
81378;SDS011;70830;42.290;-71.354;2023-11-19T04:58:09;2.65;;;1.83;;
81378;SDS011;70830;42.290;-71.354;2023-11-19T05:00:35;3.97;;;2.35;;
81378;SDS011;70830;42.290;-71.354;2023-11-19T05:03:01;3.17;;;1.95;;
81378;SDS011;70830;42.290;-71.354;2023-11-19T05:05:27;3.08;;;2.05;;
81378;SDS011;70830;42.290;-71.354;2023-11-19T05:07:54;4.03;;;1.70;;
81378;SDS011;70830;42.290;-71.354;2023-11-19T05:10:20;2.33;;;1.55;;
81378;SDS011;70830;42.290;-71.354;2023-11-19T05:12:46;2.70;;;1.63;;
81378;SDS011;70830;42.290;-71.354;2023-11-19T05:15:12;2.15;;;1.40;;
81378;SDS011;70830;42.290;-71.354;2023-11-19T05:17:39;3.22;;;1.75;;
81378;SDS011;70830;42.290;-71.354;2023-11-19T05:20:05;2.75;;;1.70;;
81378;SDS011;70830;42.290;-71.354;2023-11-19T05:22:41;2.85;;;1.70;;
81378;SDS011;70830;42.290;-71.354;2023-11-19T05:25:07;3.13;;;1.85;;
81378;SDS011;70830;42.290;-71.354;2023-11-19T05:27:34;3.15;;;2.03;;
81378;SDS011;70830;42.290;-71.354;2023-11-19T05:30:01;3.88;;;2.42;;
81378;SDS011;70830;42.290;-71.354;2023-11-19T05:32:28;1.77;;;1.40;;
81378;SDS011;70830;42.290;-71.354;2023-11-19T05:34:53;2.78;;;1.67;;
81378;SDS011;70830;42.290;-71.354;2023-11-19T05:37:19;4.18;;;1.67;;
81378;SDS011;70830;42.290;-71.354;2023-11-19T05:39:45;4.55;;;1.65;;
81378;SDS011;70830;42.290;-71.354;2023-11-19T05:42:11;2.35;;;1.42;;
81378;SDS011;70830;42.290;-71.354;2023-11-19T05:44:37;4.07;;;1.77;;
81378;SDS011;70830;42.290;-71.354;2023-11-19T05:47:03;4.47;;;1.90;;
81378;SDS011;70830;42.290;-71.354;2023-11-19T05:49:29;3.22;;;1.95;;
81378;SDS011;70830;42.290;-71.354;2023-11-19T05:51:55;2.13;;;1.50;;
81378;SDS011;70830;42.290;-71.354;2023-11-19T05:54:21;2.45;;;1.55;;
81378;SDS011;70830;42.290;-71.354;2023-11-19T05:56:47;3.55;;;2.25;;
81378;SDS011;70830;42.290;-71.354;2023-11-19T05:59:19;2.93;;;1.83;;
81378;SDS011;70830;42.290;-71.354;2023-11-19T06:01:45;2.95;;;1.98;;
81378;SDS011;70830;42.290;-71.354;2023-11-19T06:04:11;4.82;;;1.67;;
81378;SDS011;70830;42.290;-71.354;2023-11-19T06:06:38;4.05;;;2.17;;
81378;SDS011;70830;42.290;-71.354;2023-11-19T06:09:04;3.20;;;1.80;;
81378;SDS011;70830;42.290;-71.354;2023-11-19T06:11:32;4.35;;;2.88;;
81378;SDS011;70830;42.290;-71.354;2023-11-19T06:14:01;4.22;;;1.48;;
81378;SDS011;70830;42.290;-71.354;2023-11-19T06:16:30;3.72;;;1.85;;
81378;SDS011;70830;42.290;-71.354;2023-11-19T06:18:56;3.30;;;2.10;;
81378;SDS011;70830;42.290;-71.354;2023-11-19T06:21:22;3.03;;;2.00;;
81378;SDS011;70830;42.290;-71.354;2023-11-19T06:23:48;3.50;;;2.00;;
81378;SDS011;70830;42.290;-71.354;2023-11-19T06:26:16;3.45;;;2.33;;
81378;SDS011;70830;42.290;-71.354;2023-11-19T06:28:42;2.97;;;2.10;;
81378;SDS011;70830;42.290;-71.354;2023-11-19T06:31:08;3.33;;;2.13;;
81378;SDS011;70830;42.290;-71.354;2023-11-19T06:33:34;3.88;;;2.13;;
81378;SDS011;70830;42.290;-71.354;2023-11-19T06:36:00;3.67;;;2.10;;
81378;SDS011;70830;42.290;-71.354;2023-11-19T06:38:26;3.47;;;1.98;;
81378;SDS011;70830;42.290;-71.354;2023-11-19T06:40:52;3.80;;;1.98;;
81378;SDS011;70830;42.290;-71.354;2023-11-19T06:43:18;3.13;;;2.15;;
81378;SDS011;70830;42.290;-71.354;2023-11-19T06:45:44;4.07;;;2.47;;
81378;SDS011;70830;42.290;-71.354;2023-11-19T06:48:10;5.18;;;2.60;;
81378;SDS011;70830;42.290;-71.354;2023-11-19T06:50:36;3.20;;;2.30;;
81378;SDS011;70830;42.290;-71.354;2023-11-19T06:53:02;3.90;;;2.63;;
81378;SDS011;70830;42.290;-71.354;2023-11-19T06:55:28;4.35;;;2.53;;
81378;SDS011;70830;42.290;-71.354;2023-11-19T06:57:54;5.10;;;2.67;;
81378;SDS011;70830;42.290;-71.354;2023-11-19T07:00:19;6.30;;;3.30;;
81378;SDS011;70830;42.290;-71.354;2023-11-19T07:02:45;6.55;;;2.75;;
81378;SDS011;70830;42.290;-71.354;2023-11-19T07:05:11;5.25;;;3.10;;
81378;SDS011;70830;42.290;-71.354;2023-11-19T07:07:38;6.15;;;3.13;;
81378;SDS011;70830;42.290;-71.354;2023-11-19T07:10:05;4.47;;;3.03;;
81378;SDS011;70830;42.290;-71.354;2023-11-19T07:12:34;5.15;;;3.05;;
81378;SDS011;70830;42.290;-71.354;2023-11-19T07:15:01;3.35;;;2.47;;
81378;SDS011;70830;42.290;-71.354;2023-11-19T07:17:29;7.97;;;3.38;;
81378;SDS011;70830;42.290;-71.354;2023-11-19T07:19:55;8.05;;;3.53;;
81378;SDS011;70830;42.290;-71.354;2023-11-19T07:22:24;4.65;;;3.00;;
81378;SDS011;70830;42.290;-71.354;2023-11-19T07:24:50;4.00;;;2.95;;
81378;SDS011;70830;42.290;-71.354;2023-11-19T07:27:18;6.78;;;2.80;;
81378;SDS011;70830;42.290;-71.354;2023-11-19T07:29:44;4.40;;;2.95;;
81378;SDS011;70830;42.290;-71.354;2023-11-19T07:32:10;4.82;;;2.85;;
81378;SDS011;70830;42.290;-71.354;2023-11-19T07:34:38;4.25;;;2.70;;
81378;SDS011;70830;42.290;-71.354;2023-11-19T07:37:06;4.20;;;3.17;;
81378;SDS011;70830;42.290;-71.354;2023-11-19T07:39:32;7.05;;;2.42;;
81378;SDS011;70830;42.290;-71.354;2023-11-19T07:41:59;5.13;;;3.00;;
81378;SDS011;70830;42.290;-71.354;2023-11-19T07:44:25;4.45;;;2.80;;
81378;SDS011;70830;42.290;-71.354;2023-11-19T07:46:51;5.63;;;3.22;;
81378;SDS011;70830;42.290;-71.354;2023-11-19T07:49:17;6.20;;;3.00;;
81378;SDS011;70830;42.290;-71.354;2023-11-19T07:51:43;5.03;;;3.15;;
81378;SDS011;70830;42.290;-71.354;2023-11-19T07:54:09;5.28;;;2.97;;
81378;SDS011;70830;42.290;-71.354;2023-11-19T07:56:35;3.92;;;2.85;;
81378;SDS011;70830;42.290;-71.354;2023-11-19T07:59:01;4.60;;;2.55;;
81378;SDS011;70830;42.290;-71.354;2023-11-19T08:01:27;4.38;;;2.67;;
81378;SDS011;70830;42.290;-71.354;2023-11-19T08:03:53;5.55;;;2.78;;
81378;SDS011;70830;42.290;-71.354;2023-11-19T08:06:19;6.28;;;2.97;;
81378;SDS011;70830;42.290;-71.354;2023-11-19T08:08:45;5.03;;;2.88;;
81378;SDS011;70830;42.290;-71.354;2023-11-19T08:11:13;5.38;;;3.05;;
81378;SDS011;70830;42.290;-71.354;2023-11-19T08:13:39;6.35;;;3.50;;
81378;SDS011;70830;42.290;-71.354;2023-11-19T08:16:05;4.40;;;2.63;;
81378;SDS011;70830;42.290;-71.354;2023-11-19T08:18:31;5.97;;;3.60;;
81378;SDS011;70830;42.290;-71.354;2023-11-19T08:20:57;5.97;;;2.47;;
81378;SDS011;70830;42.290;-71.354;2023-11-19T08:23:24;3.85;;;2.45;;
81378;SDS011;70830;42.290;-71.354;2023-11-19T08:25:51;5.65;;;2.50;;
81378;SDS011;70830;42.290;-71.354;2023-11-19T08:28:17;5.13;;;3.10;;
81378;SDS011;70830;42.290;-71.354;2023-11-19T08:30:43;6.25;;;2.45;;
81378;SDS011;70830;42.290;-71.354;2023-11-19T08:33:10;5.03;;;2.30;;
81378;SDS011;70830;42.290;-71.354;2023-11-19T08:35:36;2.92;;;2.00;;
81378;SDS011;70830;42.290;-71.354;2023-11-19T08:38:02;4.35;;;2.70;;
81378;SDS011;70830;42.290;-71.354;2023-11-19T08:40:28;2.97;;;2.03;;
81378;SDS011;70830;42.290;-71.354;2023-11-19T08:42:56;3.80;;;2.45;;
81378;SDS011;70830;42.290;-71.354;2023-11-19T08:45:22;5.65;;;2.67;;
81378;SDS011;70830;42.290;-71.354;2023-11-19T08:47:48;4.25;;;2.90;;
81378;SDS011;70830;42.290;-71.354;2023-11-19T08:50:14;4.78;;;2.45;;
81378;SDS011;70830;42.290;-71.354;2023-11-19T08:52:40;4.32;;;2.45;;
81378;SDS011;70830;42.290;-71.354;2023-11-19T08:55:06;3.97;;;2.38;;
81378;SDS011;70830;42.290;-71.354;2023-11-19T08:57:35;3.28;;;2.13;;
81378;SDS011;70830;42.290;-71.354;2023-11-19T09:00:01;3.20;;;1.95;;
81378;SDS011;70830;42.290;-71.354;2023-11-19T09:02:28;3.35;;;2.15;;
81378;SDS011;70830;42.290;-71.354;2023-11-19T09:04:54;2.95;;;1.90;;
81378;SDS011;70830;42.290;-71.354;2023-11-19T09:07:20;3.25;;;2.00;;
81378;SDS011;70830;42.290;-71.354;2023-11-19T09:09:46;2.63;;;1.55;;
81378;SDS011;70830;42.290;-71.354;2023-11-19T09:12:12;2.90;;;1.73;;
81378;SDS011;70830;42.290;-71.354;2023-11-19T09:14:39;3.47;;;1.92;;
81378;SDS011;70830;42.290;-71.354;2023-11-19T09:17:04;3.63;;;1.98;;
81378;SDS011;70830;42.290;-71.354;2023-11-19T09:19:32;2.22;;;1.77;;
81378;SDS011;70830;42.290;-71.354;2023-11-19T09:22:01;3.05;;;1.58;;
81378;SDS011;70830;42.290;-71.354;2023-11-19T09:24:27;3.03;;;1.50;;
81378;SDS011;70830;42.290;-71.354;2023-11-19T09:26:53;3.88;;;2.17;;
81378;SDS011;70830;42.290;-71.354;2023-11-19T09:29:21;2.45;;;2.00;;
81378;SDS011;70830;42.290;-71.354;2023-11-19T09:31:47;3.72;;;1.60;;
81378;SDS011;70830;42.290;-71.354;2023-11-19T09:34:13;2.53;;;1.63;;
81378;SDS011;70830;42.290;-71.354;2023-11-19T09:36:42;2.30;;;1.60;;
81378;SDS011;70830;42.290;-71.354;2023-11-19T09:39:10;3.65;;;1.75;;
81378;SDS011;70830;42.290;-71.354;2023-11-19T09:41:36;3.15;;;1.95;;
81378;SDS011;70830;42.290;-71.354;2023-11-19T09:44:02;2.60;;;1.48;;
81378;SDS011;70830;42.290;-71.354;2023-11-19T09:46:28;4.78;;;2.08;;
81378;SDS011;70830;42.290;-71.354;2023-11-19T09:48:55;2.47;;;1.83;;
81378;SDS011;70830;42.290;-71.354;2023-11-19T09:51:24;3.05;;;1.63;;
81378;SDS011;70830;42.290;-71.354;2023-11-19T09:53:51;4.68;;;3.13;;
81378;SDS011;70830;42.290;-71.354;2023-11-19T09:56:17;3.60;;;2.17;;
81378;SDS011;70830;42.290;-71.354;2023-11-19T09:58:44;3.83;;;2.40;;
81378;SDS011;70830;42.290;-71.354;2023-11-19T10:01:10;3.85;;;2.00;;
81378;SDS011;70830;42.290;-71.354;2023-11-19T10:03:37;6.35;;;2.08;;
81378;SDS011;70830;42.290;-71.354;2023-11-19T10:06:08;4.03;;;2.08;;
81378;SDS011;70830;42.290;-71.354;2023-11-19T10:08:38;3.80;;;2.45;;
81378;SDS011;70830;42.290;-71.354;2023-11-19T10:11:05;2.67;;;1.73;;
81378;SDS011;70830;42.290;-71.354;2023-11-19T10:13:33;4.93;;;2.10;;
81378;SDS011;70830;42.290;-71.354;2023-11-19T10:16:04;4.65;;;2.28;;
81378;SDS011;70830;42.290;-71.354;2023-11-19T10:18:34;3.15;;;2.00;;
81378;SDS011;70830;42.290;-71.354;2023-11-19T10:21:06;3.10;;;2.10;;
81378;SDS011;70830;42.290;-71.354;2023-11-19T10:26:19;2.78;;;1.73;;
81378;SDS011;70830;42.290;-71.354;2023-11-19T10:28:48;5.78;;;1.77;;
81378;SDS011;70830;42.290;-71.354;2023-11-19T10:31:17;4.43;;;1.70;;
81378;SDS011;70830;42.290;-71.354;2023-11-19T10:33:44;3.05;;;1.65;;
81378;SDS011;70830;42.290;-71.354;2023-11-19T10:36:11;5.57;;;1.83;;
81378;SDS011;70830;42.290;-71.354;2023-11-19T10:38:37;4.57;;;2.05;;
81378;SDS011;70830;42.290;-71.354;2023-11-19T10:41:04;4.20;;;1.92;;
81378;SDS011;70830;42.290;-71.354;2023-11-19T10:43:31;4.90;;;1.73;;
81378;SDS011;70830;42.290;-71.354;2023-11-19T10:46:12;3.50;;;2.08;;
81378;SDS011;70830;42.290;-71.354;2023-11-19T10:48:39;2.40;;;1.30;;
81378;SDS011;70830;42.290;-71.354;2023-11-19T10:51:05;2.35;;;1.25;;
81378;SDS011;70830;42.290;-71.354;2023-11-19T10:53:36;3.95;;;1.63;;
81378;SDS011;70830;42.290;-71.354;2023-11-19T10:56:06;2.60;;;1.25;;
81378;SDS011;70830;42.290;-71.354;2023-11-19T10:58:36;2.15;;;1.20;;
81378;SDS011;70830;42.290;-71.354;2023-11-19T11:01:09;2.28;;;1.40;;
81378;SDS011;70830;42.290;-71.354;2023-11-19T11:03:39;2.17;;;1.60;;
81378;SDS011;70830;42.290;-71.354;2023-11-19T11:06:06;2.10;;;1.02;;
81378;SDS011;70830;42.290;-71.354;2023-11-19T11:08:32;3.00;;;1.65;;
81378;SDS011;70830;42.290;-71.354;2023-11-19T11:11:04;2.58;;;1.08;;
81378;SDS011;70830;42.290;-71.354;2023-11-19T11:13:31;3.35;;;1.20;;
81378;SDS011;70830;42.290;-71.354;2023-11-19T11:15:59;2.50;;;1.27;;
81378;SDS011;70830;42.290;-71.354;2023-11-19T11:18:26;2.00;;;1.30;;
81378;SDS011;70830;42.290;-71.354;2023-11-19T11:23:56;2.78;;;1.60;;
81378;SDS011;70830;42.290;-71.354;2023-11-19T11:32:34;2.88;;;1.73;;
81378;SDS011;70830;42.290;-71.354;2023-11-19T11:35:24;2.50;;;1.17;;
81378;SDS011;70830;42.290;-71.354;2023-11-19T11:38:00;4.95;;;1.40;;
81378;SDS011;70830;42.290;-71.354;2023-11-19T11:40:29;2.58;;;1.40;;
81378;SDS011;70830;42.290;-71.354;2023-11-19T11:42:56;2.22;;;1.20;;
81378;SDS011;70830;42.290;-71.354;2023-11-19T11:45:35;2.03;;;1.30;;
81378;SDS011;70830;42.290;-71.354;2023-11-19T11:50:36;3.13;;;1.60;;
81378;SDS011;70830;42.290;-71.354;2023-11-19T11:53:17;2.15;;;1.30;;
81378;SDS011;70830;42.290;-71.354;2023-11-19T11:58:17;1.83;;;1.10;;
81378;SDS011;70830;42.290;-71.354;2023-11-19T12:00:44;2.60;;;1.35;;
81378;SDS011;70830;42.290;-71.354;2023-11-19T12:03:12;1.85;;;1.00;;
81378;SDS011;70830;42.290;-71.354;2023-11-19T12:05:38;11.38;;;1.55;;
81378;SDS011;70830;42.290;-71.354;2023-11-19T12:08:07;2.58;;;1.27;;
81378;SDS011;70830;42.290;-71.354;2023-11-19T12:10:44;3.13;;;1.55;;
81378;SDS011;70830;42.290;-71.354;2023-11-19T12:13:12;1.98;;;1.00;;
81378;SDS011;70830;42.290;-71.354;2023-11-19T12:16:06;2.00;;;1.13;;
81378;SDS011;70830;42.290;-71.354;2023-11-19T12:18:32;2.60;;;0.93;;
81378;SDS011;70830;42.290;-71.354;2023-11-19T12:20:58;2.83;;;1.60;;
81378;SDS011;70830;42.290;-71.354;2023-11-19T12:23:31;1.77;;;1.35;;
81378;SDS011;70830;42.290;-71.354;2023-11-19T12:25:57;1.77;;;1.55;;
81378;SDS011;70830;42.290;-71.354;2023-11-19T12:28:24;2.28;;;1.73;;
81378;SDS011;70830;42.290;-71.354;2023-11-19T12:30:52;2.17;;;1.70;;
81378;SDS011;70830;42.290;-71.354;2023-11-19T12:33:18;2.92;;;1.83;;
81378;SDS011;70830;42.290;-71.354;2023-11-19T12:35:45;6.55;;;3.00;;
81378;SDS011;70830;42.290;-71.354;2023-11-19T12:38:21;2.90;;;1.73;;
81378;SDS011;70830;42.290;-71.354;2023-11-19T12:41:04;2.78;;;2.50;;
81378;SDS011;70830;42.290;-71.354;2023-11-19T12:43:30;3.20;;;2.88;;
81378;SDS011;70830;42.290;-71.354;2023-11-19T12:45:56;2.97;;;2.70;;
81378;SDS011;70830;42.290;-71.354;2023-11-19T12:48:22;3.08;;;2.80;;
81378;SDS011;70830;42.290;-71.354;2023-11-19T12:53:18;3.97;;;2.58;;
81378;SDS011;70830;42.290;-71.354;2023-11-19T12:55:44;3.10;;;2.80;;
81378;SDS011;70830;42.290;-71.354;2023-11-19T12:58:10;1.77;;;0.80;;
81378;SDS011;70830;42.290;-71.354;2023-11-19T13:00:58;1.77;;;0.90;;
81378;SDS011;70830;42.290;-71.354;2023-11-19T13:03:31;2.40;;;1.25;;
81378;SDS011;70830;42.290;-71.354;2023-11-19T13:06:02;1.75;;;1.40;;
81378;SDS011;70830;42.290;-71.354;2023-11-19T13:08:51;1.63;;;0.90;;
81378;SDS011;70830;42.290;-71.354;2023-11-19T13:11:32;3.17;;;2.88;;
81378;SDS011;70830;42.290;-71.354;2023-11-19T13:14:01;2.78;;;2.55;;
81378;SDS011;70830;42.290;-71.354;2023-11-19T13:16:31;3.92;;;2.80;;
81378;SDS011;70830;42.290;-71.354;2023-11-19T13:18:57;4.32;;;3.10;;
81378;SDS011;70830;42.290;-71.354;2023-11-19T13:21:25;3.50;;;3.20;;
81378;SDS011;70830;42.290;-71.354;2023-11-19T13:23:51;3.47;;;3.17;;
81378;SDS011;70830;42.290;-71.354;2023-11-19T13:26:16;2.65;;;2.45;;
81378;SDS011;70830;42.290;-71.354;2023-11-19T13:28:42;2.35;;;2.15;;
81378;SDS011;70830;42.290;-71.354;2023-11-19T13:31:08;3.10;;;2.90;;
81378;SDS011;70830;42.290;-71.354;2023-11-19T13:33:35;3.63;;;3.33;;
81378;SDS011;70830;42.290;-71.354;2023-11-19T13:36:02;3.55;;;3.25;;
81378;SDS011;70830;42.290;-71.354;2023-11-19T13:38:31;4.90;;;3.13;;
81378;SDS011;70830;42.290;-71.354;2023-11-19T13:40:58;4.28;;;3.20;;
81378;SDS011;70830;42.290;-71.354;2023-11-19T13:43:24;2.78;;;2.58;;
81378;SDS011;70830;42.290;-71.354;2023-11-19T13:45:51;3.42;;;3.13;;
81378;SDS011;70830;42.290;-71.354;2023-11-19T13:48:18;3.03;;;2.83;;
81378;SDS011;70830;42.290;-71.354;2023-11-19T13:50:44;4.93;;;3.63;;
81378;SDS011;70830;42.290;-71.354;2023-11-19T13:53:10;3.58;;;3.08;;
81378;SDS011;70830;42.290;-71.354;2023-11-19T13:55:36;3.42;;;3.13;;
81378;SDS011;70830;42.290;-71.354;2023-11-19T13:58:02;3.95;;;3.08;;
81378;SDS011;70830;42.290;-71.354;2023-11-19T14:00:28;3.00;;;2.80;;
81378;SDS011;70830;42.290;-71.354;2023-11-19T14:02:54;3.47;;;3.10;;
81378;SDS011;70830;42.290;-71.354;2023-11-19T14:05:20;2.40;;;1.95;;
81378;SDS011;70830;42.290;-71.354;2023-11-19T14:07:46;2.90;;;2.70;;
81378;SDS011;70830;42.290;-71.354;2023-11-19T14:10:16;3.70;;;3.40;;
81378;SDS011;70830;42.290;-71.354;2023-11-19T14:12:42;3.60;;;3.30;;
81378;SDS011;70830;42.290;-71.354;2023-11-19T14:15:09;3.25;;;2.97;;
81378;SDS011;70830;42.290;-71.354;2023-11-19T14:17:37;3.55;;;3.25;;
81378;SDS011;70830;42.290;-71.354;2023-11-19T14:20:03;3.10;;;2.90;;
81378;SDS011;70830;42.290;-71.354;2023-11-19T14:22:38;3.88;;;3.58;;
81378;SDS011;70830;42.290;-71.354;2023-11-19T14:25:08;2.20;;;2.00;;
81378;SDS011;70830;42.290;-71.354;2023-11-19T14:27:36;3.60;;;2.65;;
81378;SDS011;70830;42.290;-71.354;2023-11-19T14:30:05;2.28;;;2.08;;
81378;SDS011;70830;42.290;-71.354;2023-11-19T14:32:36;2.85;;;2.65;;
81378;SDS011;70830;42.290;-71.354;2023-11-19T14:35:04;5.65;;;3.42;;
81378;SDS011;70830;42.290;-71.354;2023-11-19T14:37:30;4.15;;;3.72;;
81378;SDS011;70830;42.290;-71.354;2023-11-19T14:39:57;4.00;;;3.70;;
81378;SDS011;70830;42.290;-71.354;2023-11-19T14:42:23;4.28;;;3.38;;